Etusivu
METAR-TAF:

METAR-TAF

Lentoasemat :

Tukholma, Ruotsi

Bromman lentoasema

Leveyspiiri: 59-21N, Pituuspiiri: 017-57E, korkeus merenpinnasta: 14 m

Tämänhetkinen sää

Tämä raportti tehtiin 18 tuntia ja 26 minuuttia sitten, kello 14.50 UTC
Tuuli 3 kn pohjoisesta/koillisesta
Lämpötila -4°C
Kosteus 63%
Ilmanpaine 1028 hPa
Näkyvyys 10 km tai enemmän
Hajanaisia pilviä 1900 ft:n korkeudessa

METAR: ESSB 201450Z 03003KT 9999 SCT019 M04/M10 Q1028 R30/19//43

Aika: 10:16 (09:16 UTC)

Sääennuste

Tämä raportti tehtiin 18 tuntia ja 46 minuuttia sitten, kello 14.30 UTC
Ennuste voimassa 20. päivästä klo 15 UTC - 20. päivään klo 21 UTC
Tuuli 5 kn pohjoisesta/koillisesta
Näkyvyys 10 km tai enemmän
Muutamia pilviä 2500 ft:n korkeudessa
Ajoittain
20. päivästä klo 15 UTC - 20. päivään klo 18 UTC
Näkyvyys: 4000 m
heikkoa lumisadetta

TAF: ESSB 201430Z 2015/2021 02005KT 9999 FEW025 TEMPO 2015/2018 4000 -SN

Säähavainnot ja -ennusteet yli 4000 lentoasemalta (METAR- ja TAF-raportit).

Käytössä olevat sääasemat on merkitty karttaan keltaisilla ja punaisilla pisteillä.

Aseta hiiri pisteen päälle nähdäksesi sääaseman nimen.

Klikkaa sitten nähdäksesi säähavainnot ja -ennusteet.

Kartan vaihtaminen: klikkaa mustalla rastilla varustettuja vihreitä pisteitä, niin voit zoomata sisään; viivalla varustettua vihreää pistettä, niin voit zoomata ulos tai vihreitä nuolia, niin pääset viereisille kartoille.


METAR-TAF: